createdAt,value
2019-04-16T00:01:59.251Z,8.98
2019-04-16T00:04:35.311Z,8.30
2019-04-16T00:07:21.823Z,8.25
2019-04-16T00:10:08.173Z,9.10
2019-04-16T00:12:56.308Z,8.35
2019-04-16T00:15:25.330Z,8.00
2019-04-16T00:17:53.916Z,6.62
2019-04-16T00:20:22.426Z,7.65
2019-04-16T00:22:55.357Z,8.45
2019-04-16T00:25:23.915Z,8.48
2019-04-16T00:27:52.476Z,7.80
2019-04-16T00:30:21.042Z,8.25
2019-04-16T00:32:49.503Z,8.18
2019-04-16T00:35:18.064Z,8.30
2019-04-16T00:37:51.322Z,9.13
2019-04-16T00:40:16.843Z,8.83
2019-04-16T00:42:45.328Z,8.20
2019-04-16T00:45:14.569Z,9.20
2019-04-16T00:47:43.146Z,7.72
2019-04-16T00:50:12.155Z,8.40
2019-04-16T00:52:40.656Z,9.03
2019-04-16T00:55:13.715Z,8.63
2019-04-16T00:57:40.243Z,8.73
2019-04-16T01:00:10.393Z,8.70
2019-04-16T01:02:38.953Z,9.40
2019-04-16T01:05:07.979Z,7.95
2019-04-16T01:07:36.524Z,8.18
2019-04-16T01:10:05.828Z,8.80
2019-04-16T01:12:34.493Z,8.65
2019-04-16T01:15:03.854Z,8.85
2019-04-16T01:17:33.360Z,8.58
2019-04-16T01:20:03.365Z,8.65
2019-04-16T01:22:31.980Z,7.55
2019-04-16T01:25:00.478Z,8.18
2019-04-16T01:27:36.962Z,7.37
2019-04-16T01:30:07.936Z,8.18
2019-04-16T01:32:42.719Z,7.67
2019-04-16T01:35:18.686Z,7.87
2019-04-16T01:37:56.778Z,7.97
2019-04-16T01:40:27.664Z,8.20
2019-04-16T01:42:56.255Z,9.18
2019-04-16T01:45:29.590Z,12.50
2019-04-16T01:47:55.069Z,9.08
2019-04-16T01:50:23.632Z,8.65
2019-04-16T01:52:52.236Z,8.63
2019-04-16T01:55:25.539Z,9.50
2019-04-16T01:57:51.067Z,9.10
2019-04-16T02:00:19.897Z,8.95
2019-04-16T02:02:48.452Z,9.45
2019-04-16T02:05:17.089Z,8.43
2019-04-16T02:07:45.726Z,9.00
2019-04-16T02:10:14.588Z,8.90
2019-04-16T02:12:43.911Z,9.03
2019-04-16T02:15:14.031Z,8.70
2019-04-16T02:17:42.575Z,8.33
2019-04-16T02:20:11.678Z,9.15
2019-04-16T02:22:42.346Z,9.35
2019-04-16T02:25:10.702Z,8.33
2019-04-16T02:27:39.231Z,9.65
2019-04-16T02:30:07.966Z,9.13
2019-04-16T02:32:36.541Z,9.35
2019-04-16T02:35:06.863Z,7.67
2019-04-16T02:37:37.291Z,8.48
2019-04-16T02:40:06.924Z,9.00
2019-04-16T02:42:35.479Z,10.13
2019-04-16T02:45:04.761Z,9.63
2019-04-16T02:47:39.971Z,9.38
2019-04-16T02:50:06.068Z,8.93
2019-04-16T02:52:39.087Z,8.90
2019-04-16T02:55:27.557Z,8.33
2019-04-16T02:58:13.972Z,8.03
2019-04-16T03:00:55.998Z,8.50
2019-04-16T03:03:35.112Z,8.43
2019-04-16T03:06:03.648Z,8.68
2019-04-16T03:08:33.409Z,8.20
2019-04-16T03:11:03.194Z,8.40
2019-04-16T03:13:31.750Z,8.23
2019-04-16T03:16:18.654Z,8.40
2019-04-16T03:18:54.707Z,8.90
2019-04-16T03:21:24.555Z,7.83
2019-04-16T03:23:53.425Z,8.68
2019-04-16T03:26:21.999Z,9.30
2019-04-16T03:28:50.588Z,9.08
2019-04-16T03:31:23.237Z,9.03
2019-04-16T03:33:50.973Z,8.88
2019-04-16T03:36:19.969Z,8.50
2019-04-16T03:38:48.537Z,9.60
2019-04-16T03:41:17.079Z,9.68
2019-04-16T03:43:45.688Z,9.80
2019-04-16T03:46:14.523Z,10.05
2019-04-16T03:48:43.193Z,10.20
2019-04-16T03:51:11.756Z,9.83
2019-04-16T03:53:40.283Z,10.48
2019-04-16T03:56:08.820Z,10.98
2019-04-16T03:58:38.516Z,10.00
2019-04-16T04:01:07.655Z,10.88
2019-04-16T04:03:36.283Z,9.40
2019-04-16T04:06:06.878Z,10.08
2019-04-16T04:08:35.006Z,9.83
2019-04-16T04:11:09.073Z,11.05
2019-04-16T04:13:34.005Z,10.40
2019-04-16T04:16:02.577Z,9.15
2019-04-16T04:18:31.136Z,9.80
2019-04-16T04:20:59.742Z,11.25
2019-04-16T04:23:29.298Z,11.57
2019-04-16T04:25:57.931Z,11.63
2019-04-16T04:28:26.649Z,12.53
2019-04-16T04:30:57.638Z,12.00
2019-04-16T04:33:41.350Z,11.75
2019-04-16T04:36:10.281Z,9.23
2019-04-16T04:38:39.780Z,9.78
2019-04-16T04:41:08.531Z,10.20
2019-04-16T04:43:37.235Z,10.10
2019-04-16T04:46:05.912Z,9.13
2019-04-16T04:48:34.535Z,9.28
2019-04-16T04:51:06.631Z,10.95
2019-04-16T04:53:33.239Z,9.30
2019-04-16T04:56:01.794Z,9.25
2019-04-16T04:58:33.778Z,9.90
2019-04-16T05:01:00.620Z,10.13
2019-04-16T05:03:36.576Z,11.12
2019-04-16T05:06:06.984Z,9.95
2019-04-16T05:08:35.482Z,8.83
2019-04-16T05:11:04.038Z,7.47
2019-04-16T05:13:32.604Z,9.43
2019-04-16T05:16:01.800Z,9.20
2019-04-16T05:18:31.411Z,9.35
2019-04-16T05:20:59.958Z,9.05
2019-04-16T05:23:28.470Z,8.40
2019-04-16T05:25:57.065Z,8.68
2019-04-16T05:28:25.604Z,9.78
2019-04-16T05:30:54.071Z,9.33
2019-04-16T05:33:22.589Z,9.18
2019-04-16T05:35:51.136Z,8.90
2019-04-16T05:38:20.432Z,10.18
2019-04-16T05:40:49.924Z,11.05
2019-04-16T05:43:18.392Z,10.15
2019-04-16T05:45:46.958Z,9.65
2019-04-16T05:48:15.543Z,10.18
2019-04-16T05:50:44.313Z,9.75
2019-04-16T05:53:13.630Z,10.80
2019-04-16T05:55:44.031Z,12.68
2019-04-16T05:58:12.766Z,10.63
2019-04-16T06:00:45.769Z,9.60
2019-04-16T06:03:14.747Z,10.88
2019-04-16T06:05:43.271Z,9.83
2019-04-16T06:08:11.908Z,9.20
2019-04-16T06:10:41.033Z,9.38
2019-04-16T06:13:12.624Z,8.75
2019-04-16T06:16:00.911Z,8.33
2019-04-16T06:18:31.119Z,8.60
2019-04-16T06:21:17.524Z,7.60
2019-04-16T06:23:53.810Z,7.95
2019-04-16T06:26:39.050Z,7.87
2019-04-16T06:29:14.837Z,8.05
2019-04-16T06:31:45.063Z,7.95
2019-04-16T06:34:31.660Z,7.42
2019-04-16T06:37:01.896Z,7.22
2019-04-16T06:39:32.108Z,8.08
2019-04-16T06:42:02.272Z,6.37
2019-04-16T06:44:34.890Z,6.50
2019-04-16T06:47:03.184Z,6.47
2019-04-16T06:49:39.428Z,6.40
2019-04-16T06:52:24.479Z,5.97
2019-04-16T06:54:57.252Z,6.00
2019-04-16T06:57:43.866Z,5.70
2019-04-16T07:00:14.362Z,5.40
2019-04-16T07:03:02.697Z,5.92
2019-04-16T07:05:33.928Z,5.65
2019-04-16T07:08:09.703Z,6.08
2019-04-16T07:10:48.679Z,5.50
2019-04-16T07:13:17.224Z,5.70
2019-04-16T07:15:45.998Z,5.05
2019-04-16T07:18:14.507Z,5.00
2019-04-16T07:20:45.711Z,5.87
2019-04-16T07:23:13.268Z,5.53
2019-04-16T07:25:43.582Z,5.60
2019-04-16T07:28:19.633Z,5.25
2019-04-16T07:31:06.079Z,5.42
2019-04-16T07:33:42.163Z,5.60
2019-04-16T07:36:30.477Z,5.65
2019-04-16T07:39:09.575Z,5.10
2019-04-16T07:42:09.445Z,5.22
2019-04-16T07:44:45.781Z,4.28
2019-04-16T07:47:33.570Z,4.45
2019-04-16T07:52:51.223Z,3.92
2019-04-16T07:55:23.665Z,3.90
2019-04-16T07:57:51.560Z,4.65
2019-04-16T08:00:20.300Z,3.92
2019-04-16T08:02:50.781Z,3.80
2019-04-16T08:05:19.067Z,4.70
2019-04-16T08:07:49.823Z,4.30
2019-04-16T08:10:18.296Z,3.62
2019-04-16T08:12:48.413Z,3.85
2019-04-16T08:15:17.231Z,3.12
2019-04-16T08:17:45.794Z,3.30
2019-04-16T08:20:14.393Z,3.20
2019-04-16T08:22:47.276Z,3.20
2019-04-16T08:25:13.171Z,2.98
2019-04-16T08:27:41.636Z,3.77
2019-04-16T08:30:12.259Z,3.12
2019-04-16T08:32:40.824Z,3.20
2019-04-16T08:35:09.756Z,3.42
2019-04-16T08:37:48.913Z,3.22
2019-04-16T08:40:12.536Z,3.30
2019-04-16T08:42:44.569Z,3.37
2019-04-16T08:45:09.965Z,2.77
2019-04-16T08:47:38.535Z,3.02
2019-04-16T08:50:07.703Z,3.12
2019-04-16T08:52:38.546Z,3.45
2019-04-16T08:55:06.697Z,3.12
2019-04-16T08:57:35.225Z,3.47
2019-04-16T09:00:08.643Z,3.30
2019-04-16T09:02:38.813Z,3.35
2019-04-16T09:05:11.127Z,3.80
2019-04-16T09:07:41.270Z,3.87
2019-04-16T09:10:18.895Z,3.30
2019-04-16T09:12:47.622Z,3.20
2019-04-16T09:15:16.623Z,3.20
2019-04-16T09:17:46.727Z,3.55
2019-04-16T09:20:16.899Z,3.33
2019-04-16T09:22:49.355Z,3.20
2019-04-16T09:25:17.243Z,2.90
2019-04-16T09:27:47.437Z,3.02
2019-04-16T09:30:18.197Z,3.17
2019-04-16T09:32:51.178Z,4.58
2019-04-16T09:35:24.091Z,2.83
2019-04-16T09:40:23.655Z,2.85
2019-04-16T09:42:52.258Z,2.92
2019-04-16T09:45:20.902Z,3.22
2019-04-16T09:47:49.425Z,2.95
2019-04-16T09:50:18.843Z,2.98
2019-04-16T09:52:47.303Z,3.55
2019-04-16T09:55:18.877Z,3.98
2019-04-16T09:57:46.030Z,3.60
2019-04-16T10:00:20.214Z,3.42
2019-04-16T10:02:46.876Z,4.60
2019-04-16T10:05:15.590Z,4.55
2019-04-16T10:07:44.170Z,4.05
2019-04-16T10:10:12.873Z,4.00
2019-04-16T10:12:41.489Z,3.83
2019-04-16T10:15:11.001Z,3.85
2019-04-16T10:17:39.562Z,3.58
2019-04-16T10:20:08.320Z,4.80
2019-04-16T10:22:36.945Z,4.10
2019-04-16T10:25:08.622Z,4.70
2019-04-16T10:27:41.494Z,4.17
2019-04-16T10:30:18.914Z,5.22
2019-04-16T10:32:48.038Z,4.78
2019-04-16T10:35:17.366Z,3.75
2019-04-16T10:37:46.091Z,4.95
2019-04-16T10:40:31.221Z,4.50
2019-04-16T10:43:17.721Z,4.60
2019-04-16T10:46:08.253Z,4.37
2019-04-16T10:48:38.210Z,4.58
2019-04-16T10:51:08.443Z,4.20
2019-04-16T10:53:44.485Z,4.80
2019-04-16T10:56:14.711Z,4.25
2019-04-16T10:58:47.723Z,4.10
2019-04-16T11:01:36.167Z,4.40
2019-04-16T11:04:15.185Z,4.20
2019-04-16T11:06:45.402Z,4.55
2019-04-16T11:09:14.053Z,4.65
2019-04-16T11:11:42.673Z,4.60
2019-04-16T11:14:11.275Z,4.53
2019-04-16T11:16:41.457Z,4.78
2019-04-16T11:19:10.029Z,5.10
2019-04-16T11:21:38.949Z,5.22
2019-04-16T11:24:07.484Z,5.15
2019-04-16T11:26:36.057Z,4.92
2019-04-16T11:29:05.620Z,4.78
2019-04-16T11:31:34.132Z,4.70
2019-04-16T11:34:04.455Z,5.35
2019-04-16T11:36:32.985Z,5.30
2019-04-16T11:39:02.554Z,5.95
2019-04-16T11:41:31.219Z,5.58
2019-04-16T11:44:14.164Z,6.05
2019-04-16T11:46:30.169Z,5.33
2019-04-16T11:48:58.675Z,5.35
2019-04-16T11:51:27.276Z,6.08
2019-04-16T11:53:55.823Z,5.45
2019-04-16T11:56:24.418Z,6.00
2019-04-16T11:58:53.150Z,6.20
2019-04-16T12:01:32.219Z,5.87
2019-04-16T12:04:18.620Z,6.53
2019-04-16T12:06:51.761Z,6.75
2019-04-16T12:09:38.197Z,6.35
2019-04-16T12:12:11.197Z,6.10
2019-04-16T12:14:42.483Z,6.78
2019-04-16T12:17:13.332Z,6.67
2019-04-16T12:19:46.342Z,6.60
2019-04-16T12:22:28.508Z,7.45
2019-04-16T12:25:13.758Z,7.00
2019-04-16T12:27:49.897Z,8.50
2019-04-16T12:30:32.346Z,8.20
2019-04-16T12:33:07.726Z,7.03
2019-04-16T12:35:37.072Z,7.75
2019-04-16T12:38:13.248Z,7.80
2019-04-16T12:40:45.136Z,7.78
2019-04-16T12:43:31.707Z,8.10
2019-04-16T12:46:07.587Z,7.83
2019-04-16T12:48:37.752Z,8.53
2019-04-16T12:51:19.858Z,8.33
2019-04-16T12:53:55.758Z,8.43
2019-04-16T12:56:42.043Z,7.87
2019-04-16T12:59:12.451Z,8.05
2019-04-16T13:02:00.706Z,8.55
2019-04-16T13:04:45.767Z,10.28
2019-04-16T13:07:26.639Z,8.43
2019-04-16T13:09:59.571Z,8.78
2019-04-16T13:12:32.706Z,8.98
2019-04-16T13:15:07.746Z,8.73
2019-04-16T13:17:54.384Z,11.12
2019-04-16T13:20:33.688Z,9.05
2019-04-16T13:23:20.192Z,8.13
2019-04-16T13:26:02.432Z,9.13
2019-04-16T13:28:31.117Z,14.50
2019-04-16T13:30:59.996Z,9.70
2019-04-16T13:33:28.564Z,9.78
2019-04-16T13:35:57.112Z,8.55
2019-04-16T13:38:45.646Z,9.78
2019-04-16T13:41:14.211Z,9.10
2019-04-16T13:43:59.280Z,10.25
2019-04-16T13:46:29.522Z,8.70
2019-04-16T13:49:02.446Z,9.18
2019-04-16T13:51:35.491Z,9.53
2019-04-16T13:54:22.857Z,9.55
2019-04-16T13:57:09.115Z,10.40
2019-04-16T13:59:54.508Z,11.35
2019-04-16T14:02:33.883Z,11.35
2019-04-16T14:05:04.923Z,11.78
2019-04-16T14:07:33.148Z,10.35
2019-04-16T14:10:01.804Z,9.55
2019-04-16T14:12:41.801Z,9.98
2019-04-16T14:15:00.648Z,9.40
2019-04-16T14:17:29.505Z,9.05
2019-04-16T14:19:58.115Z,9.65
2019-04-16T14:22:26.702Z,11.48
2019-04-16T14:24:55.291Z,10.40
2019-04-16T14:27:23.967Z,12.05
2019-04-16T14:29:52.521Z,10.68
2019-04-16T14:32:21.112Z,11.73
2019-04-16T14:34:54.028Z,12.10
2019-04-16T14:37:22.983Z,11.75
2019-04-16T14:39:53.233Z,12.15
2019-04-16T14:42:23.039Z,11.05
2019-04-16T14:44:56.417Z,11.93
2019-04-16T14:47:25.026Z,12.85
2019-04-16T14:49:53.579Z,11.83
2019-04-16T14:52:22.205Z,11.70
2019-04-16T14:54:52.452Z,12.03
2019-04-16T14:57:21.034Z,13.32
2019-04-16T14:59:53.769Z,13.35
2019-04-16T15:02:29.965Z,13.33
2019-04-16T15:05:02.991Z,13.35
2019-04-16T15:07:33.473Z,14.50
2019-04-16T15:10:06.405Z,13.53
2019-04-16T15:12:36.619Z,14.33
2019-04-16T15:15:19.389Z,14.35
2019-04-16T15:18:05.728Z,14.50
2019-04-16T15:20:38.577Z,14.30
2019-04-16T15:23:14.832Z,13.78
2019-04-16T15:25:50.964Z,13.18
2019-04-16T15:28:27.131Z,14.25
2019-04-16T15:31:00.714Z,14.18
2019-04-16T15:33:38.991Z,14.47
2019-04-16T15:36:10.096Z,15.53
2019-04-16T15:38:49.344Z,15.65
2019-04-16T15:41:19.566Z,15.53
2019-04-16T15:43:58.556Z,15.20
2019-04-16T15:46:45.365Z,15.58
2019-04-16T15:49:15.486Z,15.18
2019-04-16T15:51:50.852Z,15.70
2019-04-16T15:54:36.572Z,16.12
2019-04-16T15:57:23.313Z,16.27
2019-04-16T15:59:53.510Z,15.88
2019-04-16T16:02:39.948Z,14.98
2019-04-16T16:05:16.464Z,16.02
2019-04-16T16:07:46.716Z,15.50
2019-04-16T16:10:16.907Z,15.28
2019-04-16T16:12:45.486Z,16.57
2019-04-16T16:15:14.346Z,16.85
2019-04-16T16:17:42.935Z,16.48
2019-04-16T16:20:12.634Z,16.42
2019-04-16T16:22:41.190Z,16.85
2019-04-16T16:25:10.172Z,17.23
2019-04-16T16:27:41.682Z,16.87
2019-04-16T16:30:12.023Z,17.90
2019-04-16T16:32:39.522Z,17.92
2019-04-16T16:35:08.251Z,16.40
2019-04-16T16:37:37.575Z,17.77
2019-04-16T16:40:07.481Z,17.40
2019-04-16T16:42:36.031Z,17.23
2019-04-16T16:45:05.995Z,19.02
2019-04-16T16:47:39.715Z,21.70
2019-04-16T16:50:10.437Z,19.12
2019-04-16T16:52:52.394Z,21.30
2019-04-16T16:55:31.599Z,21.82
2019-04-16T16:58:01.913Z,28.38
2019-04-16T17:00:50.387Z,29.50
2019-04-16T17:03:20.631Z,33.90
2019-04-16T17:05:50.425Z,27.60
2019-04-16T17:08:18.965Z,25.85
2019-04-16T17:10:47.601Z,24.77
2019-04-16T17:13:20.787Z,24.98
2019-04-16T17:15:46.385Z,25.30
2019-04-16T17:18:15.012Z,23.22
2019-04-16T17:20:43.599Z,22.77
2019-04-16T17:23:16.428Z,25.80
2019-04-16T17:25:42.423Z,22.62
2019-04-16T17:28:11.224Z,23.45
2019-04-16T17:30:39.842Z,24.15
2019-04-16T17:33:08.621Z,27.13
2019-04-16T17:35:37.245Z,25.15
2019-04-16T17:38:06.363Z,23.67
2019-04-16T17:40:58.106Z,22.77
2019-04-16T17:43:41.694Z,22.82
2019-04-16T17:46:24.461Z,22.70
2019-04-16T17:48:58.335Z,21.17
2019-04-16T17:51:44.918Z,22.17
2019-04-16T17:54:20.834Z,19.60
2019-04-16T17:56:55.426Z,21.52
2019-04-16T17:59:29.512Z,19.87
2019-04-16T18:02:00.425Z,19.67
2019-04-16T18:04:33.280Z,20.52
2019-04-16T18:07:15.737Z,20.12
2019-04-16T18:09:48.776Z,20.20
2019-04-16T18:12:37.092Z,20.60
2019-04-16T18:15:09.649Z,20.20
2019-04-16T18:17:47.213Z,23.37
2019-04-16T18:20:17.906Z,21.77
2019-04-16T18:22:57.148Z,21.17
2019-04-16T18:25:33.259Z,22.15
2019-04-16T18:28:09.327Z,22.77
2019-04-16T18:30:42.565Z,21.68
2019-04-16T18:33:21.829Z,21.75
2019-04-16T18:35:54.728Z,21.73
2019-04-16T18:38:33.864Z,21.65
2019-04-16T18:41:10.191Z,22.27
2019-04-16T18:43:56.540Z,27.80
2019-04-16T18:46:35.754Z,41.13
2019-04-16T18:49:06.331Z,31.30
2019-04-16T18:51:34.895Z,31.48
2019-04-16T18:54:03.483Z,29.40
2019-04-16T18:56:32.137Z,29.77
2019-04-16T18:59:00.939Z,31.15
2019-04-16T19:01:32.609Z,32.73
2019-04-16T19:04:01.905Z,32.25
2019-04-16T19:06:30.474Z,36.25
2019-04-16T19:09:01.826Z,36.05
2019-04-16T19:11:30.391Z,35.58
2019-04-16T19:13:58.935Z,35.65
2019-04-16T19:16:27.424Z,34.00
2019-04-16T19:18:55.999Z,33.63
2019-04-16T19:21:24.529Z,32.38
2019-04-16T19:23:53.138Z,32.48
2019-04-16T19:26:21.675Z,30.88
2019-04-16T19:28:50.139Z,30.17
2019-04-16T19:31:22.788Z,30.88
2019-04-16T19:33:50.328Z,31.80
2019-04-16T19:36:19.765Z,29.15
2019-04-16T19:38:49.194Z,30.30
2019-04-16T19:41:23.135Z,32.78
2019-04-16T19:43:48.090Z,33.10
2019-04-16T19:46:16.685Z,32.78
2019-04-16T19:48:45.214Z,34.60
2019-04-16T19:51:13.930Z,33.33
2019-04-16T19:53:44.575Z,32.90
2019-04-16T19:56:15.567Z,34.05
2019-04-16T19:58:44.221Z,46.23
2019-04-16T20:01:13.279Z,66.87
2019-04-16T20:03:43.559Z,65.57
2019-04-16T20:06:12.020Z,44.88
2019-04-16T20:08:40.508Z,43.68
2019-04-16T20:11:09.015Z,44.10
2019-04-16T20:13:37.597Z,43.63
2019-04-16T20:16:06.212Z,41.77
2019-04-16T20:18:49.961Z,39.63
2019-04-16T20:21:05.002Z,40.67
2019-04-16T20:23:33.573Z,38.33
2019-04-16T20:26:02.073Z,39.63
2019-04-16T20:28:30.619Z,40.90
2019-04-16T20:31:03.206Z,39.83
2019-04-16T20:33:29.415Z,41.02
2019-04-16T20:35:57.960Z,40.78
2019-04-16T20:38:29.295Z,40.08
2019-04-16T20:40:56.880Z,40.55
2019-04-16T20:43:25.421Z,38.38
2019-04-16T20:45:54.015Z,39.23
2019-04-16T20:48:22.565Z,41.10
2019-04-16T20:50:53.028Z,42.35
2019-04-16T20:53:21.383Z,40.20
2019-04-16T20:55:49.864Z,37.67
2019-04-16T20:58:18.396Z,37.23
2019-04-16T21:00:48.644Z,37.67
2019-04-16T21:03:22.195Z,38.33
2019-04-16T21:05:57.852Z,44.53
2019-04-16T21:08:24.062Z,64.65
2019-04-16T21:10:48.169Z,43.68
2019-04-16T21:13:16.858Z,37.33
2019-04-16T21:15:45.481Z,36.23
2019-04-16T21:18:14.063Z,39.88
2019-04-16T21:20:42.632Z,39.18
2019-04-16T21:23:11.225Z,36.95
2019-04-16T21:25:42.741Z,37.90
2019-04-16T21:28:29.534Z,34.95
2019-04-16T21:31:02.660Z,32.80
2019-04-16T21:33:35.626Z,32.03
2019-04-16T21:36:21.844Z,30.45
2019-04-16T21:39:08.392Z,31.33
2019-04-16T21:41:36.932Z,31.23
2019-04-16T21:44:05.462Z,30.37
2019-04-16T21:46:33.992Z,32.78
2019-04-16T21:49:02.582Z,33.02
2019-04-16T21:51:31.156Z,30.77
2019-04-16T21:53:59.749Z,29.80
2019-04-16T21:56:28.298Z,29.67
2019-04-16T21:58:56.768Z,30.40
2019-04-16T22:01:26.968Z,30.02
2019-04-16T22:04:02.972Z,29.60
2019-04-16T22:06:31.757Z,29.63
2019-04-16T22:09:03.297Z,28.65
2019-04-16T22:11:30.502Z,31.15
2019-04-16T22:13:59.652Z,30.08
2019-04-16T22:16:29.891Z,29.27
2019-04-16T22:18:58.921Z,32.10
2019-04-16T22:21:27.487Z,28.50
2019-04-16T22:23:56.232Z,29.23
2019-04-16T22:26:24.836Z,26.97
2019-04-16T22:28:53.328Z,28.20
2019-04-16T22:31:23.969Z,29.35
2019-04-16T22:33:52.107Z,27.48
2019-04-16T22:36:20.647Z,27.55
2019-04-16T22:38:50.817Z,27.45
2019-04-16T22:41:23.561Z,27.37
2019-04-16T22:43:52.888Z,27.52
2019-04-16T22:46:25.929Z,29.07
2019-04-16T22:48:55.697Z,27.87
2019-04-16T22:51:25.882Z,28.00
2019-04-16T22:53:54.646Z,26.55
2019-04-16T22:56:28.129Z,26.75
2019-04-16T22:58:55.262Z,27.05
2019-04-16T23:01:28.026Z,26.00
2019-04-16T23:03:56.671Z,25.48
2019-04-16T23:06:25.398Z,26.45
2019-04-16T23:08:53.927Z,26.93
2019-04-16T23:11:23.748Z,26.02
2019-04-16T23:13:52.636Z,26.48
2019-04-16T23:16:21.200Z,26.52
2019-04-16T23:18:50.117Z,26.55
2019-04-16T23:21:18.740Z,25.35
2019-04-16T23:23:47.740Z,25.70
2019-04-16T23:26:17.489Z,24.92
2019-04-16T23:28:46.080Z,25.57
2019-04-16T23:31:14.652Z,26.45
2019-04-16T23:33:43.220Z,25.77
2019-04-16T23:36:15.433Z,26.40
2019-04-16T23:38:41.996Z,25.08
2019-04-16T23:41:15.325Z,27.30
2019-04-16T23:43:45.058Z,26.42
2019-04-16T23:46:27.051Z,28.75
2019-04-16T23:49:06.172Z,27.17
2019-04-16T23:51:39.209Z,25.52
2019-04-16T23:54:12.779Z,27.15
2019-04-16T23:56:43.112Z,25.68
2019-04-16T23:59:19.115Z,27.45
